sensor_id;sensor_type;location;lat;lon;timestamp;P1;durP1;ratioP1;P2;durP2;ratioP2
45114;SDS011;30877;43.706;10.780;2023-05-31T00:01:11;4.25;;;2.92;;
45114;SDS011;30877;43.706;10.780;2023-05-31T00:03:39;4.43;;;3.20;;
45114;SDS011;30877;43.706;10.780;2023-05-31T00:06:10;5.88;;;3.22;;
45114;SDS011;30877;43.706;10.780;2023-05-31T00:08:40;4.57;;;2.70;;
45114;SDS011;30877;43.706;10.780;2023-05-31T00:11:09;3.85;;;3.08;;
45114;SDS011;30877;43.706;10.780;2023-05-31T00:13:37;7.07;;;2.50;;
45114;SDS011;30877;43.706;10.780;2023-05-31T00:16:22;3.95;;;2.55;;
45114;SDS011;30877;43.706;10.780;2023-05-31T00:19:10;3.95;;;2.83;;
45114;SDS011;30877;43.706;10.780;2023-05-31T00:21:38;3.50;;;2.80;;
45114;SDS011;30877;43.706;10.780;2023-05-31T00:24:08;4.10;;;2.80;;
45114;SDS011;30877;43.706;10.780;2023-05-31T00:26:36;3.97;;;2.75;;
45114;SDS011;30877;43.706;10.780;2023-05-31T00:29:04;4.13;;;2.90;;
45114;SDS011;30877;43.706;10.780;2023-05-31T00:31:33;6.50;;;2.92;;
45114;SDS011;30877;43.706;10.780;2023-05-31T00:34:01;3.72;;;2.72;;
45114;SDS011;30877;43.706;10.780;2023-05-31T00:36:29;4.85;;;3.10;;
45114;SDS011;30877;43.706;10.780;2023-05-31T00:38:58;4.85;;;2.83;;
45114;SDS011;30877;43.706;10.780;2023-05-31T00:41:28;5.45;;;3.22;;
45114;SDS011;30877;43.706;10.780;2023-05-31T00:43:56;4.70;;;2.97;;
45114;SDS011;30877;43.706;10.780;2023-05-31T00:46:25;4.43;;;2.95;;
45114;SDS011;30877;43.706;10.780;2023-05-31T00:48:56;6.78;;;3.17;;
45114;SDS011;30877;43.706;10.780;2023-05-31T00:51:25;6.93;;;3.20;;
45114;SDS011;30877;43.706;10.780;2023-05-31T00:53:54;3.30;;;2.80;;
45114;SDS011;30877;43.706;10.780;2023-05-31T00:56:24;4.97;;;2.95;;
45114;SDS011;30877;43.706;10.780;2023-05-31T00:58:54;5.70;;;3.05;;
45114;SDS011;30877;43.706;10.780;2023-05-31T01:01:23;5.07;;;2.97;;
45114;SDS011;30877;43.706;10.780;2023-05-31T01:04:00;5.20;;;2.95;;
45114;SDS011;30877;43.706;10.780;2023-05-31T01:06:31;4.22;;;2.95;;
45114;SDS011;30877;43.706;10.780;2023-05-31T01:09:02;4.70;;;2.92;;
45114;SDS011;30877;43.706;10.780;2023-05-31T01:11:35;4.72;;;3.20;;
45114;SDS011;30877;43.706;10.780;2023-05-31T01:14:19;4.45;;;2.65;;
45114;SDS011;30877;43.706;10.780;2023-05-31T01:16:54;4.80;;;3.00;;
45114;SDS011;30877;43.706;10.780;2023-05-31T01:19:45;4.75;;;3.20;;
45114;SDS011;30877;43.706;10.780;2023-05-31T01:22:19;5.53;;;3.10;;
45114;SDS011;30877;43.706;10.780;2023-05-31T01:25:01;4.60;;;2.88;;
45114;SDS011;30877;43.706;10.780;2023-05-31T01:27:42;3.53;;;2.88;;
45114;SDS011;30877;43.706;10.780;2023-05-31T01:30:12;6.05;;;3.05;;
45114;SDS011;30877;43.706;10.780;2023-05-31T01:32:43;4.03;;;2.80;;
45114;SDS011;30877;43.706;10.780;2023-05-31T01:35:13;4.45;;;3.40;;
45114;SDS011;30877;43.706;10.780;2023-05-31T01:37:43;3.83;;;2.65;;
45114;SDS011;30877;43.706;10.780;2023-05-31T01:40:12;3.17;;;2.85;;
45114;SDS011;30877;43.706;10.780;2023-05-31T01:42:44;4.00;;;3.20;;
45114;SDS011;30877;43.706;10.780;2023-05-31T01:45:14;3.35;;;2.67;;
45114;SDS011;30877;43.706;10.780;2023-05-31T01:47:43;3.92;;;3.00;;
45114;SDS011;30877;43.706;10.780;2023-05-31T01:50:14;7.28;;;3.10;;
45114;SDS011;30877;43.706;10.780;2023-05-31T01:52:45;6.22;;;2.75;;
45114;SDS011;30877;43.706;10.780;2023-05-31T01:55:13;4.22;;;2.78;;
45114;SDS011;30877;43.706;10.780;2023-05-31T01:57:42;6.15;;;3.38;;
45114;SDS011;30877;43.706;10.780;2023-05-31T02:00:13;5.38;;;3.55;;
45114;SDS011;30877;43.706;10.780;2023-05-31T02:02:41;6.13;;;2.85;;
45114;SDS011;30877;43.706;10.780;2023-05-31T02:05:10;4.28;;;2.58;;
45114;SDS011;30877;43.706;10.780;2023-05-31T02:07:40;5.32;;;3.20;;
45114;SDS011;30877;43.706;10.780;2023-05-31T02:10:09;5.03;;;3.05;;
45114;SDS011;30877;43.706;10.780;2023-05-31T02:12:39;4.03;;;3.05;;
45114;SDS011;30877;43.706;10.780;2023-05-31T02:15:09;5.05;;;3.33;;
45114;SDS011;30877;43.706;10.780;2023-05-31T02:17:40;3.78;;;3.10;;
45114;SDS011;30877;43.706;10.780;2023-05-31T02:20:11;4.90;;;3.17;;
45114;SDS011;30877;43.706;10.780;2023-05-31T02:22:40;5.07;;;2.72;;
45114;SDS011;30877;43.706;10.780;2023-05-31T02:25:08;3.45;;;2.70;;
45114;SDS011;30877;43.706;10.780;2023-05-31T02:27:40;3.97;;;2.80;;
45114;SDS011;30877;43.706;10.780;2023-05-31T02:30:10;5.00;;;3.20;;
45114;SDS011;30877;43.706;10.780;2023-05-31T02:32:38;3.92;;;3.22;;
45114;SDS011;30877;43.706;10.780;2023-05-31T02:35:08;3.70;;;2.80;;
45114;SDS011;30877;43.706;10.780;2023-05-31T02:37:37;4.03;;;3.20;;
45114;SDS011;30877;43.706;10.780;2023-05-31T02:40:06;5.38;;;3.22;;
45114;SDS011;30877;43.706;10.780;2023-05-31T02:42:37;4.13;;;2.90;;
45114;SDS011;30877;43.706;10.780;2023-05-31T02:45:06;3.53;;;3.20;;
45114;SDS011;30877;43.706;10.780;2023-05-31T02:47:37;5.93;;;3.30;;
45114;SDS011;30877;43.706;10.780;2023-05-31T02:50:06;4.57;;;3.50;;
45114;SDS011;30877;43.706;10.780;2023-05-31T02:52:40;4.50;;;2.80;;
45114;SDS011;30877;43.706;10.780;2023-05-31T02:55:37;3.63;;;2.97;;
45114;SDS011;30877;43.706;10.780;2023-05-31T02:58:18;4.55;;;3.10;;
45114;SDS011;30877;43.706;10.780;2023-05-31T03:01:06;3.33;;;2.83;;
45114;SDS011;30877;43.706;10.780;2023-05-31T03:03:42;5.50;;;3.40;;
45114;SDS011;30877;43.706;10.780;2023-05-31T03:06:22;4.40;;;3.35;;
45114;SDS011;30877;43.706;10.780;2023-05-31T03:08:50;4.57;;;2.80;;
45114;SDS011;30877;43.706;10.780;2023-05-31T03:11:19;4.82;;;3.20;;
45114;SDS011;30877;43.706;10.780;2023-05-31T03:13:47;3.53;;;3.13;;
45114;SDS011;30877;43.706;10.780;2023-05-31T03:16:15;3.83;;;2.70;;
45114;SDS011;30877;43.706;10.780;2023-05-31T03:18:49;5.45;;;3.22;;
45114;SDS011;30877;43.706;10.780;2023-05-31T03:21:17;4.50;;;3.20;;
45114;SDS011;30877;43.706;10.780;2023-05-31T03:23:47;5.32;;;3.15;;
45114;SDS011;30877;43.706;10.780;2023-05-31T03:26:15;4.75;;;3.90;;
45114;SDS011;30877;43.706;10.780;2023-05-31T03:28:44;5.28;;;3.80;;
45114;SDS011;30877;43.706;10.780;2023-05-31T03:31:16;4.97;;;3.75;;
45114;SDS011;30877;43.706;10.780;2023-05-31T03:33:46;5.05;;;3.28;;
45114;SDS011;30877;43.706;10.780;2023-05-31T03:36:16;5.10;;;3.83;;
45114;SDS011;30877;43.706;10.780;2023-05-31T03:38:44;6.32;;;3.60;;
45114;SDS011;30877;43.706;10.780;2023-05-31T03:41:13;5.60;;;3.92;;
45114;SDS011;30877;43.706;10.780;2023-05-31T03:43:41;5.60;;;3.60;;
45114;SDS011;30877;43.706;10.780;2023-05-31T03:46:09;4.80;;;3.55;;
45114;SDS011;30877;43.706;10.780;2023-05-31T03:48:37;4.38;;;3.70;;
45114;SDS011;30877;43.706;10.780;2023-05-31T03:51:05;4.50;;;3.65;;
45114;SDS011;30877;43.706;10.780;2023-05-31T03:53:35;4.80;;;3.17;;
45114;SDS011;30877;43.706;10.780;2023-05-31T03:56:03;4.45;;;3.60;;
45114;SDS011;30877;43.706;10.780;2023-05-31T03:58:31;4.00;;;3.60;;
45114;SDS011;30877;43.706;10.780;2023-05-31T04:01:00;4.72;;;3.80;;
45114;SDS011;30877;43.706;10.780;2023-05-31T04:03:29;4.60;;;3.45;;
45114;SDS011;30877;43.706;10.780;2023-05-31T04:05:58;7.10;;;3.83;;
45114;SDS011;30877;43.706;10.780;2023-05-31T04:08:26;4.07;;;3.50;;
45114;SDS011;30877;43.706;10.780;2023-05-31T04:10:55;4.78;;;3.70;;
45114;SDS011;30877;43.706;10.780;2023-05-31T04:13:24;4.10;;;3.70;;
45114;SDS011;30877;43.706;10.780;2023-05-31T04:15:52;4.95;;;3.90;;
45114;SDS011;30877;43.706;10.780;2023-05-31T04:18:20;6.35;;;3.88;;
45114;SDS011;30877;43.706;10.780;2023-05-31T04:20:48;5.90;;;3.63;;
45114;SDS011;30877;43.706;10.780;2023-05-31T04:23:17;6.15;;;3.72;;
45114;SDS011;30877;43.706;10.780;2023-05-31T04:25:45;4.13;;;3.63;;
45114;SDS011;30877;43.706;10.780;2023-05-31T04:28:16;5.85;;;3.70;;
45114;SDS011;30877;43.706;10.780;2023-05-31T04:30:46;5.30;;;4.13;;
45114;SDS011;30877;43.706;10.780;2023-05-31T04:33:14;4.55;;;4.00;;
45114;SDS011;30877;43.706;10.780;2023-05-31T04:35:44;3.20;;;2.90;;
45114;SDS011;30877;43.706;10.780;2023-05-31T04:38:13;5.97;;;4.07;;
45114;SDS011;30877;43.706;10.780;2023-05-31T04:40:43;7.40;;;4.00;;
45114;SDS011;30877;43.706;10.780;2023-05-31T04:43:11;5.35;;;3.47;;
45114;SDS011;30877;43.706;10.780;2023-05-31T04:45:41;5.85;;;4.13;;
45114;SDS011;30877;43.706;10.780;2023-05-31T04:48:09;7.60;;;4.10;;
45114;SDS011;30877;43.706;10.780;2023-05-31T04:50:37;6.70;;;3.83;;
45114;SDS011;30877;43.706;10.780;2023-05-31T04:53:06;6.50;;;4.18;;
45114;SDS011;30877;43.706;10.780;2023-05-31T04:55:33;6.75;;;4.32;;
45114;SDS011;30877;43.706;10.780;2023-05-31T04:58:05;4.65;;;4.15;;
45114;SDS011;30877;43.706;10.780;2023-05-31T05:00:35;6.10;;;4.18;;
45114;SDS011;30877;43.706;10.780;2023-05-31T05:03:22;5.78;;;3.88;;
45114;SDS011;30877;43.706;10.780;2023-05-31T05:05:51;6.88;;;4.57;;
45114;SDS011;30877;43.706;10.780;2023-05-31T05:08:19;6.13;;;4.03;;
45114;SDS011;30877;43.706;10.780;2023-05-31T05:10:47;7.95;;;4.13;;
45114;SDS011;30877;43.706;10.780;2023-05-31T05:13:16;9.02;;;4.05;;
45114;SDS011;30877;43.706;10.780;2023-05-31T05:15:46;6.68;;;4.30;;
45114;SDS011;30877;43.706;10.780;2023-05-31T05:18:14;4.65;;;3.97;;
45114;SDS011;30877;43.706;10.780;2023-05-31T05:20:44;6.20;;;3.85;;
45114;SDS011;30877;43.706;10.780;2023-05-31T05:23:13;5.47;;;3.90;;
45114;SDS011;30877;43.706;10.780;2023-05-31T05:25:42;6.28;;;4.63;;
45114;SDS011;30877;43.706;10.780;2023-05-31T05:28:10;5.97;;;3.75;;
45114;SDS011;30877;43.706;10.780;2023-05-31T05:30:39;6.65;;;4.25;;
45114;SDS011;30877;43.706;10.780;2023-05-31T05:33:07;8.68;;;4.25;;
45114;SDS011;30877;43.706;10.780;2023-05-31T05:35:35;8.13;;;4.68;;
45114;SDS011;30877;43.706;10.780;2023-05-31T05:38:05;8.25;;;4.45;;
45114;SDS011;30877;43.706;10.780;2023-05-31T05:40:33;8.90;;;4.95;;
45114;SDS011;30877;43.706;10.780;2023-05-31T05:43:01;6.13;;;4.30;;
45114;SDS011;30877;43.706;10.780;2023-05-31T05:45:34;10.27;;;4.78;;
45114;SDS011;30877;43.706;10.780;2023-05-31T05:48:02;7.88;;;3.90;;
45114;SDS011;30877;43.706;10.780;2023-05-31T05:50:33;8.18;;;4.63;;
45114;SDS011;30877;43.706;10.780;2023-05-31T05:53:00;6.15;;;3.75;;
45114;SDS011;30877;43.706;10.780;2023-05-31T05:55:30;8.30;;;4.40;;
45114;SDS011;30877;43.706;10.780;2023-05-31T05:58:01;5.75;;;3.83;;
45114;SDS011;30877;43.706;10.780;2023-05-31T06:00:49;8.70;;;4.28;;
45114;SDS011;30877;43.706;10.780;2023-05-31T06:03:17;8.52;;;4.45;;
45114;SDS011;30877;43.706;10.780;2023-05-31T06:05:47;8.27;;;4.22;;
45114;SDS011;30877;43.706;10.780;2023-05-31T06:08:15;6.03;;;4.00;;
45114;SDS011;30877;43.706;10.780;2023-05-31T06:10:46;8.10;;;5.03;;
45114;SDS011;30877;43.706;10.780;2023-05-31T06:13:14;8.07;;;4.35;;
45114;SDS011;30877;43.706;10.780;2023-05-31T06:15:43;22.83;;;4.90;;
45114;SDS011;30877;43.706;10.780;2023-05-31T06:18:11;8.23;;;4.93;;
45114;SDS011;30877;43.706;10.780;2023-05-31T06:20:43;7.07;;;5.03;;
45114;SDS011;30877;43.706;10.780;2023-05-31T06:23:11;7.68;;;4.40;;
45114;SDS011;30877;43.706;10.780;2023-05-31T06:25:39;7.00;;;4.93;;
45114;SDS011;30877;43.706;10.780;2023-05-31T06:28:10;5.97;;;4.45;;
45114;SDS011;30877;43.706;10.780;2023-05-31T06:30:41;6.15;;;4.13;;
45114;SDS011;30877;43.706;10.780;2023-05-31T06:33:09;5.28;;;3.97;;
45114;SDS011;30877;43.706;10.780;2023-05-31T06:35:36;5.78;;;3.70;;
45114;SDS011;30877;43.706;10.780;2023-05-31T06:38:06;4.85;;;3.63;;
45114;SDS011;30877;43.706;10.780;2023-05-31T06:40:36;6.28;;;3.40;;
45114;SDS011;30877;43.706;10.780;2023-05-31T06:43:05;5.07;;;3.25;;
45114;SDS011;30877;43.706;10.780;2023-05-31T06:45:52;3.67;;;3.37;;
45114;SDS011;30877;43.706;10.780;2023-05-31T06:48:20;4.10;;;3.70;;
45114;SDS011;30877;43.706;10.780;2023-05-31T06:51:07;5.15;;;3.55;;
45114;SDS011;30877;43.706;10.780;2023-05-31T06:53:53;4.00;;;3.60;;
45114;SDS011;30877;43.706;10.780;2023-05-31T06:56:25;5.78;;;3.45;;
45114;SDS011;30877;43.706;10.780;2023-05-31T06:58:55;4.13;;;3.30;;
45114;SDS011;30877;43.706;10.780;2023-05-31T07:01:25;6.53;;;3.22;;
45114;SDS011;30877;43.706;10.780;2023-05-31T07:03:53;3.88;;;3.50;;
45114;SDS011;30877;43.706;10.780;2023-05-31T07:06:21;3.50;;;3.20;;
45114;SDS011;30877;43.706;10.780;2023-05-31T07:08:50;3.90;;;3.50;;
45114;SDS011;30877;43.706;10.780;2023-05-31T07:11:27;7.15;;;3.88;;
45114;SDS011;30877;43.706;10.780;2023-05-31T07:13:55;7.13;;;3.58;;
45114;SDS011;30877;43.706;10.780;2023-05-31T07:16:30;4.22;;;3.22;;
45114;SDS011;30877;43.706;10.780;2023-05-31T07:18:58;4.85;;;3.33;;
45114;SDS011;30877;43.706;10.780;2023-05-31T07:21:26;7.93;;;3.90;;
45114;SDS011;30877;43.706;10.780;2023-05-31T07:23:54;7.60;;;3.65;;
45114;SDS011;30877;43.706;10.780;2023-05-31T07:26:22;4.10;;;3.58;;
45114;SDS011;30877;43.706;10.780;2023-05-31T07:28:50;4.40;;;3.60;;
45114;SDS011;30877;43.706;10.780;2023-05-31T07:31:21;4.38;;;3.42;;
45114;SDS011;30877;43.706;10.780;2023-05-31T07:33:51;3.60;;;3.25;;
45114;SDS011;30877;43.706;10.780;2023-05-31T07:36:19;4.70;;;3.63;;
45114;SDS011;30877;43.706;10.780;2023-05-31T07:38:47;4.53;;;3.67;;
45114;SDS011;30877;43.706;10.780;2023-05-31T07:41:15;4.72;;;3.67;;
45114;SDS011;30877;43.706;10.780;2023-05-31T07:43:43;5.35;;;3.72;;
45114;SDS011;30877;43.706;10.780;2023-05-31T07:46:12;5.22;;;4.18;;
45114;SDS011;30877;43.706;10.780;2023-05-31T07:48:40;5.07;;;3.55;;
45114;SDS011;30877;43.706;10.780;2023-05-31T07:51:09;4.55;;;3.38;;
45114;SDS011;30877;43.706;10.780;2023-05-31T07:53:37;4.38;;;3.97;;
45114;SDS011;30877;43.706;10.780;2023-05-31T07:56:06;5.78;;;3.90;;
45114;SDS011;30877;43.706;10.780;2023-05-31T07:58:34;5.63;;;3.60;;
45114;SDS011;30877;43.706;10.780;2023-05-31T08:01:03;6.90;;;4.50;;
45114;SDS011;30877;43.706;10.780;2023-05-31T08:03:32;4.28;;;3.30;;
45114;SDS011;30877;43.706;10.780;2023-05-31T08:06:00;5.82;;;4.10;;
45114;SDS011;30877;43.706;10.780;2023-05-31T08:08:30;5.57;;;3.72;;
45114;SDS011;30877;43.706;10.780;2023-05-31T08:10:59;4.65;;;3.90;;
45114;SDS011;30877;43.706;10.780;2023-05-31T08:13:27;4.18;;;3.42;;
45114;SDS011;30877;43.706;10.780;2023-05-31T08:15:56;5.35;;;3.70;;
45114;SDS011;30877;43.706;10.780;2023-05-31T08:18:24;4.82;;;3.90;;
45114;SDS011;30877;43.706;10.780;2023-05-31T08:20:52;7.80;;;3.85;;
45114;SDS011;30877;43.706;10.780;2023-05-31T08:23:20;4.75;;;3.97;;
45114;SDS011;30877;43.706;10.780;2023-05-31T08:25:50;5.38;;;4.18;;
45114;SDS011;30877;43.706;10.780;2023-05-31T08:28:20;4.32;;;3.47;;
45114;SDS011;30877;43.706;10.780;2023-05-31T08:30:47;5.60;;;3.45;;
45114;SDS011;30877;43.706;10.780;2023-05-31T08:33:16;3.40;;;3.05;;
45114;SDS011;30877;43.706;10.780;2023-05-31T08:35:44;3.83;;;3.40;;
45114;SDS011;30877;43.706;10.780;2023-05-31T08:38:12;6.53;;;3.90;;
45114;SDS011;30877;43.706;10.780;2023-05-31T08:40:41;3.90;;;3.50;;
45114;SDS011;30877;43.706;10.780;2023-05-31T08:43:11;4.05;;;3.08;;
45114;SDS011;30877;43.706;10.780;2023-05-31T08:45:43;4.72;;;3.70;;
45114;SDS011;30877;43.706;10.780;2023-05-31T08:48:13;4.32;;;3.63;;
45114;SDS011;30877;43.706;10.780;2023-05-31T08:50:44;4.57;;;3.70;;
45114;SDS011;30877;43.706;10.780;2023-05-31T08:53:31;4.18;;;3.80;;
45114;SDS011;30877;43.706;10.780;2023-05-31T08:56:02;4.97;;;3.45;;
45114;SDS011;30877;43.706;10.780;2023-05-31T08:58:33;4.65;;;3.80;;
45114;SDS011;30877;43.706;10.780;2023-05-31T09:01:02;4.15;;;3.33;;
45114;SDS011;30877;43.706;10.780;2023-05-31T09:03:31;6.03;;;3.22;;
45114;SDS011;30877;43.706;10.780;2023-05-31T09:06:00;3.85;;;3.38;;
45114;SDS011;30877;43.706;10.780;2023-05-31T09:08:28;5.00;;;3.78;;
45114;SDS011;30877;43.706;10.780;2023-05-31T09:11:01;5.60;;;3.33;;
45114;SDS011;30877;43.706;10.780;2023-05-31T09:13:29;3.58;;;3.20;;
45114;SDS011;30877;43.706;10.780;2023-05-31T09:15:58;3.63;;;3.30;;
45114;SDS011;30877;43.706;10.780;2023-05-31T09:18:32;6.90;;;3.83;;
45114;SDS011;30877;43.706;10.780;2023-05-31T09:21:07;4.03;;;3.60;;
45114;SDS011;30877;43.706;10.780;2023-05-31T09:23:35;7.82;;;3.80;;
45114;SDS011;30877;43.706;10.780;2023-05-31T09:26:05;5.20;;;3.60;;
45114;SDS011;30877;43.706;10.780;2023-05-31T09:28:34;4.38;;;3.50;;
45114;SDS011;30877;43.706;10.780;2023-05-31T09:31:04;4.10;;;3.70;;
45114;SDS011;30877;43.706;10.780;2023-05-31T09:33:36;4.90;;;3.60;;
45114;SDS011;30877;43.706;10.780;2023-05-31T09:36:06;4.30;;;3.90;;
45114;SDS011;30877;43.706;10.780;2023-05-31T09:38:35;4.63;;;3.70;;
45114;SDS011;30877;43.706;10.780;2023-05-31T09:41:13;4.93;;;3.97;;
45114;SDS011;30877;43.706;10.780;2023-05-31T09:43:41;4.57;;;3.67;;
45114;SDS011;30877;43.706;10.780;2023-05-31T09:46:12;5.30;;;3.42;;
45114;SDS011;30877;43.706;10.780;2023-05-31T09:48:41;8.27;;;4.03;;
45114;SDS011;30877;43.706;10.780;2023-05-31T09:51:09;4.63;;;3.47;;
45114;SDS011;30877;43.706;10.780;2023-05-31T09:53:42;3.72;;;3.10;;
45114;SDS011;30877;43.706;10.780;2023-05-31T09:56:16;5.07;;;3.78;;
45114;SDS011;30877;43.706;10.780;2023-05-31T09:58:45;4.10;;;3.42;;
45114;SDS011;30877;43.706;10.780;2023-05-31T10:01:14;4.00;;;3.17;;
45114;SDS011;30877;43.706;10.780;2023-05-31T10:03:43;4.82;;;3.88;;
45114;SDS011;30877;43.706;10.780;2023-05-31T10:06:11;3.92;;;3.40;;
45114;SDS011;30877;43.706;10.780;2023-05-31T10:08:42;5.18;;;3.58;;
45114;SDS011;30877;43.706;10.780;2023-05-31T10:11:11;5.18;;;4.03;;
45114;SDS011;30877;43.706;10.780;2023-05-31T10:13:44;4.85;;;3.20;;
45114;SDS011;30877;43.706;10.780;2023-05-31T10:16:15;4.93;;;3.35;;
45114;SDS011;30877;43.706;10.780;2023-05-31T10:18:47;3.80;;;3.45;;
45114;SDS011;30877;43.706;10.780;2023-05-31T10:21:19;3.90;;;3.60;;
45114;SDS011;30877;43.706;10.780;2023-05-31T10:23:56;3.83;;;3.40;;
45114;SDS011;30877;43.706;10.780;2023-05-31T10:26:26;3.30;;;3.00;;
45114;SDS011;30877;43.706;10.780;2023-05-31T10:29:05;4.20;;;3.60;;
45114;SDS011;30877;43.706;10.780;2023-05-31T10:31:43;4.78;;;3.80;;
45114;SDS011;30877;43.706;10.780;2023-05-31T10:34:18;4.30;;;3.35;;
45114;SDS011;30877;43.706;10.780;2023-05-31T10:36:49;4.53;;;3.78;;
45114;SDS011;30877;43.706;10.780;2023-05-31T10:39:21;3.13;;;2.85;;
45114;SDS011;30877;43.706;10.780;2023-05-31T10:42:08;3.30;;;3.00;;
45114;SDS011;30877;43.706;10.780;2023-05-31T10:44:42;4.97;;;3.70;;
45114;SDS011;30877;43.706;10.780;2023-05-31T10:47:16;3.92;;;3.50;;
45114;SDS011;30877;43.706;10.780;2023-05-31T10:49:51;3.88;;;3.47;;
45114;SDS011;30877;43.706;10.780;2023-05-31T10:52:23;4.15;;;3.30;;
45114;SDS011;30877;43.706;10.780;2023-05-31T10:57:49;5.15;;;3.75;;
45114;SDS011;30877;43.706;10.780;2023-05-31T11:00:21;4.78;;;3.08;;
45114;SDS011;30877;43.706;10.780;2023-05-31T11:02:52;3.80;;;3.33;;
45114;SDS011;30877;43.706;10.780;2023-05-31T11:05:24;4.45;;;2.85;;
45114;SDS011;30877;43.706;10.780;2023-05-31T11:07:54;3.45;;;3.15;;
45114;SDS011;30877;43.706;10.780;2023-05-31T11:10:25;3.78;;;3.15;;
45114;SDS011;30877;43.706;10.780;2023-05-31T11:12:56;4.10;;;3.40;;
45114;SDS011;30877;43.706;10.780;2023-05-31T11:15:37;4.30;;;3.25;;
45114;SDS011;30877;43.706;10.780;2023-05-31T11:18:08;5.93;;;3.47;;
45114;SDS011;30877;43.706;10.780;2023-05-31T11:20:40;4.55;;;3.45;;
45114;SDS011;30877;43.706;10.780;2023-05-31T11:23:24;6.68;;;3.80;;
45114;SDS011;30877;43.706;10.780;2023-05-31T11:26:07;4.05;;;3.53;;
45114;SDS011;30877;43.706;10.780;2023-05-31T11:28:54;4.50;;;3.45;;
45114;SDS011;30877;43.706;10.780;2023-05-31T11:34:28;5.57;;;3.83;;
45114;SDS011;30877;43.706;10.780;2023-05-31T11:36:59;3.22;;;2.92;;
45114;SDS011;30877;43.706;10.780;2023-05-31T11:39:28;4.43;;;3.90;;
45114;SDS011;30877;43.706;10.780;2023-05-31T11:41:56;3.55;;;3.17;;
45114;SDS011;30877;43.706;10.780;2023-05-31T11:44:28;3.60;;;3.08;;
45114;SDS011;30877;43.706;10.780;2023-05-31T11:46:59;5.93;;;3.90;;
45114;SDS011;30877;43.706;10.780;2023-05-31T11:49:32;4.25;;;2.95;;
45114;SDS011;30877;43.706;10.780;2023-05-31T11:52:01;3.67;;;3.20;;
45114;SDS011;30877;43.706;10.780;2023-05-31T11:54:31;4.47;;;3.10;;
45114;SDS011;30877;43.706;10.780;2023-05-31T11:57:00;4.75;;;3.10;;
45114;SDS011;30877;43.706;10.780;2023-05-31T11:59:33;5.13;;;3.42;;
45114;SDS011;30877;43.706;10.780;2023-05-31T12:02:02;4.68;;;4.15;;
45114;SDS011;30877;43.706;10.780;2023-05-31T12:04:33;4.93;;;3.45;;
45114;SDS011;30877;43.706;10.780;2023-05-31T12:07:05;4.82;;;3.20;;
45114;SDS011;30877;43.706;10.780;2023-05-31T12:09:34;4.88;;;3.42;;
45114;SDS011;30877;43.706;10.780;2023-05-31T12:12:03;4.80;;;3.53;;
45114;SDS011;30877;43.706;10.780;2023-05-31T12:14:34;5.22;;;3.30;;
45114;SDS011;30877;43.706;10.780;2023-05-31T12:17:02;4.30;;;3.30;;
45114;SDS011;30877;43.706;10.780;2023-05-31T12:19:35;5.78;;;3.50;;
45114;SDS011;30877;43.706;10.780;2023-05-31T12:22:03;4.05;;;3.35;;
45114;SDS011;30877;43.706;10.780;2023-05-31T12:24:32;4.75;;;4.25;;
45114;SDS011;30877;43.706;10.780;2023-05-31T12:27:00;5.97;;;3.47;;
45114;SDS011;30877;43.706;10.780;2023-05-31T12:29:29;6.63;;;3.47;;
45114;SDS011;30877;43.706;10.780;2023-05-31T12:32:02;4.07;;;3.58;;
45114;SDS011;30877;43.706;10.780;2023-05-31T12:34:34;5.50;;;3.20;;
45114;SDS011;30877;43.706;10.780;2023-05-31T12:37:04;3.55;;;3.25;;
45114;SDS011;30877;43.706;10.780;2023-05-31T12:39:33;3.75;;;2.97;;
45114;SDS011;30877;43.706;10.780;2023-05-31T12:42:02;3.78;;;3.38;;
45114;SDS011;30877;43.706;10.780;2023-05-31T12:44:30;5.80;;;3.20;;
45114;SDS011;30877;43.706;10.780;2023-05-31T12:46:59;4.72;;;3.08;;
45114;SDS011;30877;43.706;10.780;2023-05-31T12:49:28;6.55;;;3.20;;
45114;SDS011;30877;43.706;10.780;2023-05-31T12:51:59;6.32;;;3.83;;
45114;SDS011;30877;43.706;10.780;2023-05-31T12:54:31;3.38;;;3.08;;
45114;SDS011;30877;43.706;10.780;2023-05-31T12:57:00;4.78;;;3.55;;
45114;SDS011;30877;43.706;10.780;2023-05-31T12:59:30;4.00;;;3.53;;
45114;SDS011;30877;43.706;10.780;2023-05-31T13:01:58;5.10;;;3.58;;
45114;SDS011;30877;43.706;10.780;2023-05-31T13:04:27;4.07;;;3.28;;
45114;SDS011;30877;43.706;10.780;2023-05-31T13:06:55;6.40;;;3.20;;
45114;SDS011;30877;43.706;10.780;2023-05-31T13:09:28;3.67;;;2.90;;
45114;SDS011;30877;43.706;10.780;2023-05-31T13:11:56;5.43;;;3.20;;
45114;SDS011;30877;43.706;10.780;2023-05-31T13:14:24;4.30;;;3.53;;
45114;SDS011;30877;43.706;10.780;2023-05-31T13:16:52;5.82;;;3.13;;
45114;SDS011;30877;43.706;10.780;2023-05-31T13:19:21;3.80;;;3.15;;
45114;SDS011;30877;43.706;10.780;2023-05-31T13:21:49;5.38;;;3.38;;
45114;SDS011;30877;43.706;10.780;2023-05-31T13:24:17;3.45;;;2.90;;
45114;SDS011;30877;43.706;10.780;2023-05-31T13:26:46;3.53;;;3.15;;
45114;SDS011;30877;43.706;10.780;2023-05-31T13:29:14;4.07;;;2.78;;
45114;SDS011;30877;43.706;10.780;2023-05-31T13:31:43;6.47;;;3.75;;
45114;SDS011;30877;43.706;10.780;2023-05-31T13:34:12;4.55;;;3.03;;
45114;SDS011;30877;43.706;10.780;2023-05-31T13:36:40;6.05;;;3.60;;
45114;SDS011;30877;43.706;10.780;2023-05-31T13:39:08;3.90;;;3.50;;
45114;SDS011;30877;43.706;10.780;2023-05-31T13:41:41;4.90;;;3.40;;
45114;SDS011;30877;43.706;10.780;2023-05-31T13:44:11;4.55;;;3.65;;
45114;SDS011;30877;43.706;10.780;2023-05-31T13:46:42;5.53;;;3.33;;
45114;SDS011;30877;43.706;10.780;2023-05-31T13:49:10;4.00;;;3.33;;
45114;SDS011;30877;43.706;10.780;2023-05-31T13:51:42;4.80;;;3.25;;
45114;SDS011;30877;43.706;10.780;2023-05-31T13:54:10;8.50;;;3.53;;
45114;SDS011;30877;43.706;10.780;2023-05-31T13:56:38;3.35;;;2.85;;
45114;SDS011;30877;43.706;10.780;2023-05-31T13:59:06;3.53;;;3.00;;
45114;SDS011;30877;43.706;10.780;2023-05-31T14:01:36;3.67;;;2.95;;
45114;SDS011;30877;43.706;10.780;2023-05-31T14:04:04;3.75;;;2.85;;
45114;SDS011;30877;43.706;10.780;2023-05-31T14:06:32;3.50;;;3.05;;
45114;SDS011;30877;43.706;10.780;2023-05-31T14:09:00;4.13;;;3.08;;
45114;SDS011;30877;43.706;10.780;2023-05-31T14:11:28;3.90;;;2.95;;
45114;SDS011;30877;43.706;10.780;2023-05-31T14:13:56;3.92;;;2.95;;
45114;SDS011;30877;43.706;10.780;2023-05-31T14:16:24;5.88;;;3.15;;
45114;SDS011;30877;43.706;10.780;2023-05-31T14:18:57;8.77;;;3.17;;
45114;SDS011;30877;43.706;10.780;2023-05-31T14:21:25;6.13;;;3.45;;
45114;SDS011;30877;43.706;10.780;2023-05-31T14:23:53;4.95;;;3.22;;
45114;SDS011;30877;43.706;10.780;2023-05-31T14:26:21;3.97;;;3.13;;
45114;SDS011;30877;43.706;10.780;2023-05-31T14:28:49;4.13;;;3.08;;
45114;SDS011;30877;43.706;10.780;2023-05-31T14:31:17;5.53;;;3.30;;
45114;SDS011;30877;43.706;10.780;2023-05-31T14:33:45;4.40;;;3.10;;
45114;SDS011;30877;43.706;10.780;2023-05-31T14:36:14;4.50;;;3.22;;
45114;SDS011;30877;43.706;10.780;2023-05-31T14:38:44;4.78;;;3.63;;
45114;SDS011;30877;43.706;10.780;2023-05-31T14:41:12;3.53;;;3.05;;
45114;SDS011;30877;43.706;10.780;2023-05-31T14:43:40;6.15;;;3.42;;
45114;SDS011;30877;43.706;10.780;2023-05-31T14:46:08;4.10;;;3.20;;
45114;SDS011;30877;43.706;10.780;2023-05-31T14:48:36;3.92;;;3.20;;
45114;SDS011;30877;43.706;10.780;2023-05-31T14:51:04;4.85;;;2.67;;
45114;SDS011;30877;43.706;10.780;2023-05-31T14:53:34;4.85;;;3.22;;
45114;SDS011;30877;43.706;10.780;2023-05-31T14:56:02;5.38;;;3.63;;
45114;SDS011;30877;43.706;10.780;2023-05-31T14:58:44;6.38;;;3.10;;